sensor_id;sensor_type;location;lat;lon;timestamp;pressure;altitude;pressure_sealevel;temperature;humidity
76205;BME280;64986;55.672;37.628;2022-11-15T00:00:06;100129.91;;;0.63;48.45
76205;BME280;64986;55.672;37.628;2022-11-15T00:02:32;100122.63;;;0.57;48.60
76205;BME280;64986;55.672;37.628;2022-11-15T00:04:57;100132.63;;;0.61;48.59
76205;BME280;64986;55.672;37.628;2022-11-15T00:07:23;100122.97;;;0.63;48.39
76205;BME280;64986;55.672;37.628;2022-11-15T00:09:48;100124.59;;;0.64;48.17
76205;BME280;64986;55.672;37.628;2022-11-15T00:12:14;100122.56;;;0.68;48.14
76205;BME280;64986;55.672;37.628;2022-11-15T00:14:39;100116.13;;;0.62;48.72
76205;BME280;64986;55.672;37.628;2022-11-15T00:17:05;100118.56;;;0.43;48.21
76205;BME280;64986;55.672;37.628;2022-11-15T00:19:30;100114.47;;;0.40;48.42
76205;BME280;64986;55.672;37.628;2022-11-15T00:21:55;100113.25;;;0.44;48.59
76205;BME280;64986;55.672;37.628;2022-11-15T00:24:21;100112.44;;;0.44;48.26
76205;BME280;64986;55.672;37.628;2022-11-15T00:26:46;100109.63;;;0.47;48.64
76205;BME280;64986;55.672;37.628;2022-11-15T00:29:12;100108.53;;;0.49;48.49
76205;BME280;64986;55.672;37.628;2022-11-15T00:31:37;100108.41;;;0.51;48.39
76205;BME280;64986;55.672;37.628;2022-11-15T00:34:03;100105.44;;;0.55;48.50
76205;BME280;64986;55.672;37.628;2022-11-15T00:36:28;100104.19;;;0.50;48.28
76205;BME280;64986;55.672;37.628;2022-11-15T00:38:53;100097.81;;;0.54;48.24
76205;BME280;64986;55.672;37.628;2022-11-15T00:41:19;100100.91;;;0.48;48.10
76205;BME280;64986;55.672;37.628;2022-11-15T00:43:44;100094.06;;;0.47;48.32
76205;BME280;64986;55.672;37.628;2022-11-15T00:46:10;100101.94;;;0.45;48.38
76205;BME280;64986;55.672;37.628;2022-11-15T00:48:36;100098.31;;;0.48;48.60
76205;BME280;64986;55.672;37.628;2022-11-15T00:51:01;100085.50;;;0.46;48.61
76205;BME280;64986;55.672;37.628;2022-11-15T00:53:27;100082.75;;;0.48;49.09
76205;BME280;64986;55.672;37.628;2022-11-15T00:55:53;100087.94;;;0.48;48.29
76205;BME280;64986;55.672;37.628;2022-11-15T00:58:19;100075.84;;;0.37;48.29
76205;BME280;64986;55.672;37.628;2022-11-15T01:00:44;100073.53;;;0.34;48.22
76205;BME280;64986;55.672;37.628;2022-11-15T01:03:10;100082.56;;;0.40;48.23
76205;BME280;64986;55.672;37.628;2022-11-15T01:05:37;100074.34;;;0.35;48.33
76205;BME280;64986;55.672;37.628;2022-11-15T01:08:03;100071.34;;;0.18;48.28
76205;BME280;64986;55.672;37.628;2022-11-15T01:10:28;100073.00;;;0.19;48.67
76205;BME280;64986;55.672;37.628;2022-11-15T01:12:54;100060.50;;;0.24;48.42
76205;BME280;64986;55.672;37.628;2022-11-15T01:15:19;100074.59;;;0.32;48.02
76205;BME280;64986;55.672;37.628;2022-11-15T01:17:45;100067.81;;;0.19;48.29
76205;BME280;64986;55.672;37.628;2022-11-15T01:20:11;100070.41;;;0.19;48.30
76205;BME280;64986;55.672;37.628;2022-11-15T01:22:36;100070.13;;;0.34;48.32
76205;BME280;64986;55.672;37.628;2022-11-15T01:25:02;100066.53;;;0.14;48.09
76205;BME280;64986;55.672;37.628;2022-11-15T01:27:27;100062.91;;;0.16;48.12
76205;BME280;64986;55.672;37.628;2022-11-15T01:29:53;100056.25;;;0.03;48.24
76205;BME280;64986;55.672;37.628;2022-11-15T01:32:18;100057.31;;;0.00;48.68
76205;BME280;64986;55.672;37.628;2022-11-15T01:34:44;100052.44;;;0.07;48.63
76205;BME280;64986;55.672;37.628;2022-11-15T01:37:09;100043.50;;;0.11;48.26
76205;BME280;64986;55.672;37.628;2022-11-15T01:39:35;100043.38;;;0.12;48.69
76205;BME280;64986;55.672;37.628;2022-11-15T01:42:01;100043.63;;;0.09;48.52
76205;BME280;64986;55.672;37.628;2022-11-15T01:44:51;100048.94;;;0.08;48.58
76205;BME280;64986;55.672;37.628;2022-11-15T01:47:24;100049.50;;;0.11;48.65
76205;BME280;64986;55.672;37.628;2022-11-15T01:50:01;100050.25;;;0.02;48.05
76205;BME280;64986;55.672;37.628;2022-11-15T01:52:29;100051.53;;;0.08;48.64
76205;BME280;64986;55.672;37.628;2022-11-15T01:55:09;100049.50;;;0.11;48.06
76205;BME280;64986;55.672;37.628;2022-11-15T01:57:37;100053.03;;;0.10;48.69
76205;BME280;64986;55.672;37.628;2022-11-15T02:00:04;100051.63;;;0.06;48.93
76205;BME280;64986;55.672;37.628;2022-11-15T02:02:31;100048.09;;;0.07;48.80
76205;BME280;64986;55.672;37.628;2022-11-15T02:04:57;100049.03;;;0.06;48.70
76205;BME280;64986;55.672;37.628;2022-11-15T02:07:23;100036.34;;;0.03;48.79
76205;BME280;64986;55.672;37.628;2022-11-15T02:09:49;100052.63;;;-0.06;49.00
76205;BME280;64986;55.672;37.628;2022-11-15T02:12:19;100055.84;;;-0.14;48.87
76205;BME280;64986;55.672;37.628;2022-11-15T02:14:48;100052.22;;;-0.22;49.21
76205;BME280;64986;55.672;37.628;2022-11-15T02:20:20;100052.25;;;-0.45;49.11
76205;BME280;64986;55.672;37.628;2022-11-15T02:23:28;100049.19;;;-0.50;49.58
76205;BME280;64986;55.672;37.628;2022-11-15T02:31:29;100031.66;;;-0.46;49.86
76205;BME280;64986;55.672;37.628;2022-11-15T02:34:04;100041.22;;;-0.58;50.27
76205;BME280;64986;55.672;37.628;2022-11-15T02:39:34;100036.97;;;-0.48;50.19
76205;BME280;64986;55.672;37.628;2022-11-15T02:45:09;100026.94;;;-0.30;49.86
76205;BME280;64986;55.672;37.628;2022-11-15T02:47:45;100023.09;;;-0.36;49.89
76205;BME280;64986;55.672;37.628;2022-11-15T02:50:14;100027.78;;;-0.30;49.96
76205;BME280;64986;55.672;37.628;2022-11-15T02:52:41;100031.19;;;-0.29;50.07
76205;BME280;64986;55.672;37.628;2022-11-15T02:55:36;100016.69;;;-0.20;49.89
76205;BME280;64986;55.672;37.628;2022-11-15T03:01:04;100025.41;;;-0.33;49.57
76205;BME280;64986;55.672;37.628;2022-11-15T03:11:15;100006.03;;;-0.38;49.99
76205;BME280;64986;55.672;37.628;2022-11-15T03:16:37;100007.13;;;-0.52;50.15
76205;BME280;64986;55.672;37.628;2022-11-15T03:19:33;100000.19;;;-0.51;49.94
76205;BME280;64986;55.672;37.628;2022-11-15T03:22:03;100000.75;;;-0.48;50.18
76205;BME280;64986;55.672;37.628;2022-11-15T03:24:34;99997.50;;;-0.50;50.25
76205;BME280;64986;55.672;37.628;2022-11-15T03:27:02;99983.34;;;-0.46;50.32
76205;BME280;64986;55.672;37.628;2022-11-15T03:29:33;99983.59;;;-0.38;50.10
76205;BME280;64986;55.672;37.628;2022-11-15T03:32:11;100000.84;;;-0.38;49.92
76205;BME280;64986;55.672;37.628;2022-11-15T03:34:44;99992.78;;;-0.45;50.13
76205;BME280;64986;55.672;37.628;2022-11-15T03:37:13;100006.16;;;-0.40;50.36
76205;BME280;64986;55.672;37.628;2022-11-15T03:39:40;100003.78;;;-0.32;49.49
76205;BME280;64986;55.672;37.628;2022-11-15T03:42:28;100015.31;;;-0.36;49.76
76205;BME280;64986;55.672;37.628;2022-11-15T03:47:34;100004.50;;;-0.41;49.66
76205;BME280;64986;55.672;37.628;2022-11-15T03:50:11;100004.28;;;-0.49;49.83
76205;BME280;64986;55.672;37.628;2022-11-15T03:52:39;100000.75;;;-0.48;49.92
76205;BME280;64986;55.672;37.628;2022-11-15T03:55:08;99995.72;;;-0.49;50.15
76205;BME280;64986;55.672;37.628;2022-11-15T03:57:36;100009.22;;;-0.46;49.97
76205;BME280;64986;55.672;37.628;2022-11-15T04:00:03;99997.34;;;-0.48;49.60
76205;BME280;64986;55.672;37.628;2022-11-15T04:02:29;99997.16;;;-0.57;49.98
76205;BME280;64986;55.672;37.628;2022-11-15T04:04:54;99995.16;;;-0.64;50.14
76205;BME280;64986;55.672;37.628;2022-11-15T04:07:20;99985.66;;;-0.64;49.96
76205;BME280;64986;55.672;37.628;2022-11-15T04:09:45;99985.31;;;-0.70;50.00
76205;BME280;64986;55.672;37.628;2022-11-15T04:12:33;99990.56;;;-0.61;49.86
76205;BME280;64986;55.672;37.628;2022-11-15T04:15:25;99987.19;;;-0.72;49.54
76205;BME280;64986;55.672;37.628;2022-11-15T04:17:53;99986.50;;;-0.74;50.30
76205;BME280;64986;55.672;37.628;2022-11-15T04:20:24;99989.03;;;-0.63;50.33
76205;BME280;64986;55.672;37.628;2022-11-15T04:23:12;99987.06;;;-0.60;50.46
76205;BME280;64986;55.672;37.628;2022-11-15T04:25:59;99974.22;;;-0.61;50.26
76205;BME280;64986;55.672;37.628;2022-11-15T04:28:25;99989.31;;;-0.66;50.11
76205;BME280;64986;55.672;37.628;2022-11-15T04:30:51;99981.28;;;-0.63;50.27
76205;BME280;64986;55.672;37.628;2022-11-15T04:33:17;99985.84;;;-0.56;50.05
76205;BME280;64986;55.672;37.628;2022-11-15T04:35:42;99980.06;;;-0.48;50.03
76205;BME280;64986;55.672;37.628;2022-11-15T04:38:09;99978.22;;;-0.57;50.20
76205;BME280;64986;55.672;37.628;2022-11-15T04:40:36;99974.00;;;-0.69;50.49
76205;BME280;64986;55.672;37.628;2022-11-15T04:43:02;99968.84;;;-0.69;50.35
76205;BME280;64986;55.672;37.628;2022-11-15T04:45:28;99970.94;;;-0.63;50.57
76205;BME280;64986;55.672;37.628;2022-11-15T04:47:54;99960.94;;;-0.57;50.56
76205;BME280;64986;55.672;37.628;2022-11-15T04:50:19;99961.03;;;-0.47;50.62
76205;BME280;64986;55.672;37.628;2022-11-15T04:52:53;99961.38;;;-0.40;50.21
76205;BME280;64986;55.672;37.628;2022-11-15T04:55:19;99967.84;;;-0.46;50.36
76205;BME280;64986;55.672;37.628;2022-11-15T04:57:44;99959.19;;;-0.56;50.71
76205;BME280;64986;55.672;37.628;2022-11-15T05:00:12;99953.41;;;-0.48;50.70
76205;BME280;64986;55.672;37.628;2022-11-15T05:02:38;99954.44;;;-0.40;50.58
76205;BME280;64986;55.672;37.628;2022-11-15T05:05:24;99952.44;;;-0.36;50.29
76205;BME280;64986;55.672;37.628;2022-11-15T05:07:49;99957.22;;;-0.32;50.24
76205;BME280;64986;55.672;37.628;2022-11-15T05:10:15;99960.19;;;-0.36;50.38
76205;BME280;64986;55.672;37.628;2022-11-15T05:12:41;99949.22;;;-0.29;50.44
76205;BME280;64986;55.672;37.628;2022-11-15T05:15:06;99953.53;;;-0.18;50.63
76205;BME280;64986;55.672;37.628;2022-11-15T05:17:32;99942.47;;;-0.20;50.31
76205;BME280;64986;55.672;37.628;2022-11-15T05:19:58;99951.06;;;-0.19;50.57
76205;BME280;64986;55.672;37.628;2022-11-15T05:22:23;99944.06;;;-0.29;50.20
76205;BME280;64986;55.672;37.628;2022-11-15T05:24:49;99943.03;;;-0.37;50.83
76205;BME280;64986;55.672;37.628;2022-11-15T05:27:14;99954.19;;;-0.37;50.53
76205;BME280;64986;55.672;37.628;2022-11-15T05:29:40;99963.53;;;-0.24;50.87
76205;BME280;64986;55.672;37.628;2022-11-15T05:32:08;99953.84;;;-0.11;50.52
76205;BME280;64986;55.672;37.628;2022-11-15T05:34:35;99952.91;;;-0.10;50.20
76205;BME280;64986;55.672;37.628;2022-11-15T05:37:00;99945.06;;;-0.20;50.05
76205;BME280;64986;55.672;37.628;2022-11-15T05:39:26;99939.56;;;-0.26;50.57
76205;BME280;64986;55.672;37.628;2022-11-15T05:41:55;99939.09;;;-0.32;50.68
76205;BME280;64986;55.672;37.628;2022-11-15T05:44:23;99936.53;;;-0.32;50.98
76205;BME280;64986;55.672;37.628;2022-11-15T05:46:50;99948.31;;;-0.39;50.67
76205;BME280;64986;55.672;37.628;2022-11-15T05:49:25;99936.16;;;-0.27;50.72
76205;BME280;64986;55.672;37.628;2022-11-15T05:51:53;99929.16;;;-0.15;50.44
76205;BME280;64986;55.672;37.628;2022-11-15T05:54:20;99935.47;;;-0.08;50.57
76205;BME280;64986;55.672;37.628;2022-11-15T05:56:48;99928.91;;;-0.12;50.47
76205;BME280;64986;55.672;37.628;2022-11-15T05:59:14;99926.03;;;0.02;50.35
76205;BME280;64986;55.672;37.628;2022-11-15T06:01:40;99925.41;;;0.10;50.28
76205;BME280;64986;55.672;37.628;2022-11-15T06:04:05;99923.03;;;0.07;50.06
76205;BME280;64986;55.672;37.628;2022-11-15T06:06:31;99928.31;;;0.16;50.17
76205;BME280;64986;55.672;37.628;2022-11-15T06:08:56;99923.00;;;0.18;49.87
76205;BME280;64986;55.672;37.628;2022-11-15T06:11:22;99924.44;;;0.32;49.86
76205;BME280;64986;55.672;37.628;2022-11-15T06:13:47;99918.16;;;0.34;49.44
76205;BME280;64986;55.672;37.628;2022-11-15T06:16:13;99924.34;;;0.22;49.43
76205;BME280;64986;55.672;37.628;2022-11-15T06:18:38;99932.47;;;-0.13;50.25
76205;BME280;64986;55.672;37.628;2022-11-15T06:21:04;99924.25;;;-0.18;50.57
76205;BME280;64986;55.672;37.628;2022-11-15T06:23:34;99923.69;;;-0.22;50.37
76205;BME280;64986;55.672;37.628;2022-11-15T06:26:00;99910.22;;;-0.37;50.74
76205;BME280;64986;55.672;37.628;2022-11-15T06:28:30;99907.22;;;-0.21;50.76
76205;BME280;64986;55.672;37.628;2022-11-15T06:30:56;99910.41;;;-0.08;50.45
76205;BME280;64986;55.672;37.628;2022-11-15T06:33:22;99906.38;;;-0.01;50.56
76205;BME280;64986;55.672;37.628;2022-11-15T06:35:47;99905.06;;;0.05;50.40
76205;BME280;64986;55.672;37.628;2022-11-15T06:38:13;99894.25;;;0.21;50.15
76205;BME280;64986;55.672;37.628;2022-11-15T06:40:39;99895.97;;;0.32;50.17
76205;BME280;64986;55.672;37.628;2022-11-15T06:43:05;99891.59;;;0.32;50.08
76205;BME280;64986;55.672;37.628;2022-11-15T06:45:31;99891.00;;;0.28;50.20
76205;BME280;64986;55.672;37.628;2022-11-15T06:47:57;99891.28;;;0.25;50.17
76205;BME280;64986;55.672;37.628;2022-11-15T06:50:23;99896.78;;;0.32;49.94
76205;BME280;64986;55.672;37.628;2022-11-15T06:52:49;99901.69;;;0.14;50.24
76205;BME280;64986;55.672;37.628;2022-11-15T06:55:15;99890.94;;;0.09;50.32
76205;BME280;64986;55.672;37.628;2022-11-15T06:57:50;99895.09;;;0.01;50.29
76205;BME280;64986;55.672;37.628;2022-11-15T07:00:18;99886.44;;;-0.10;50.53
76205;BME280;64986;55.672;37.628;2022-11-15T07:02:44;99875.91;;;0.03;50.79
76205;BME280;64986;55.672;37.628;2022-11-15T07:05:11;99876.00;;;0.22;50.37
76205;BME280;64986;55.672;37.628;2022-11-15T07:07:36;99873.53;;;0.21;50.11
76205;BME280;64986;55.672;37.628;2022-11-15T07:10:02;99880.53;;;0.30;50.03
76205;BME280;64986;55.672;37.628;2022-11-15T07:12:28;99875.91;;;0.03;50.23
76205;BME280;64986;55.672;37.628;2022-11-15T07:14:53;99868.66;;;-0.03;50.64
76205;BME280;64986;55.672;37.628;2022-11-15T07:17:18;99866.63;;;0.01;50.70
76205;BME280;64986;55.672;37.628;2022-11-15T07:19:44;99859.59;;;0.12;50.50
76205;BME280;64986;55.672;37.628;2022-11-15T07:22:09;99868.84;;;0.36;50.26
76205;BME280;64986;55.672;37.628;2022-11-15T07:24:35;99868.44;;;0.31;50.05
76205;BME280;64986;55.672;37.628;2022-11-15T07:27:00;99868.44;;;0.31;49.86
76205;BME280;64986;55.672;37.628;2022-11-15T07:29:26;99864.53;;;0.15;50.09
76205;BME280;64986;55.672;37.628;2022-11-15T07:31:51;99870.13;;;0.20;50.42
76205;BME280;64986;55.672;37.628;2022-11-15T07:34:17;99856.03;;;0.34;50.12
76205;BME280;64986;55.672;37.628;2022-11-15T07:36:42;99854.06;;;0.57;49.93
76205;BME280;64986;55.672;37.628;2022-11-15T07:39:08;99848.59;;;0.60;49.53
76205;BME280;64986;55.672;37.628;2022-11-15T07:41:33;99843.16;;;0.53;49.36
76205;BME280;64986;55.672;37.628;2022-11-15T07:43:59;99844.22;;;0.51;49.15
76205;BME280;64986;55.672;37.628;2022-11-15T07:46:25;99835.47;;;0.42;49.08
76205;BME280;64986;55.672;37.628;2022-11-15T07:48:50;99836.56;;;0.40;49.56
76205;BME280;64986;55.672;37.628;2022-11-15T07:51:16;99840.47;;;0.24;49.51
76205;BME280;64986;55.672;37.628;2022-11-15T07:53:43;99832.44;;;0.27;49.90
76205;BME280;64986;55.672;37.628;2022-11-15T07:56:09;99831.97;;;0.22;49.67
76205;BME280;64986;55.672;37.628;2022-11-15T07:58:34;99824.41;;;0.31;49.87
76205;BME280;64986;55.672;37.628;2022-11-15T08:01:08;99832.75;;;0.44;49.70
76205;BME280;64986;55.672;37.628;2022-11-15T08:03:34;99822.00;;;0.48;49.61
76205;BME280;64986;55.672;37.628;2022-11-15T08:05:59;99823.56;;;0.61;49.34
76205;BME280;64986;55.672;37.628;2022-11-15T08:08:25;99836.31;;;0.52;48.98
76205;BME280;64986;55.672;37.628;2022-11-15T08:10:50;99821.19;;;0.48;49.75
76205;BME280;64986;55.672;37.628;2022-11-15T08:13:16;99829.50;;;0.51;49.73
76205;BME280;64986;55.672;37.628;2022-11-15T08:15:42;99823.97;;;0.66;49.72
76205;BME280;64986;55.672;37.628;2022-11-15T08:18:13;99820.59;;;0.85;48.92
76205;BME280;64986;55.672;37.628;2022-11-15T08:20:38;99816.13;;;1.06;48.81
76205;BME280;64986;55.672;37.628;2022-11-15T08:23:05;99820.59;;;1.04;48.44
76205;BME280;64986;55.672;37.628;2022-11-15T08:25:32;99820.75;;;1.31;48.70
76205;BME280;64986;55.672;37.628;2022-11-15T08:28:00;99824.44;;;1.38;48.06
76205;BME280;64986;55.672;37.628;2022-11-15T08:30:27;99808.88;;;1.48;48.24
76205;BME280;64986;55.672;37.628;2022-11-15T08:32:53;99806.97;;;1.31;48.38
76205;BME280;64986;55.672;37.628;2022-11-15T08:35:19;99797.28;;;1.23;48.90
76205;BME280;64986;55.672;37.628;2022-11-15T08:37:45;99805.19;;;1.41;48.32
76205;BME280;64986;55.672;37.628;2022-11-15T08:40:11;99789.47;;;1.62;47.91
76205;BME280;64986;55.672;37.628;2022-11-15T08:42:37;99791.09;;;1.63;47.39
76205;BME280;64986;55.672;37.628;2022-11-15T08:45:03;99797.34;;;1.70;47.52
76205;BME280;64986;55.672;37.628;2022-11-15T08:47:29;99794.13;;;1.49;47.51
76205;BME280;64986;55.672;37.628;2022-11-15T08:49:54;99782.66;;;1.51;48.02
76205;BME280;64986;55.672;37.628;2022-11-15T08:52:20;99783.06;;;1.27;48.49
76205;BME280;64986;55.672;37.628;2022-11-15T08:54:45;99787.16;;;1.20;48.63
76205;BME280;64986;55.672;37.628;2022-11-15T08:57:11;99803.44;;;1.22;48.51
76205;BME280;64986;55.672;37.628;2022-11-15T08:59:36;99796.88;;;1.18;48.06
76205;BME280;64986;55.672;37.628;2022-11-15T09:02:02;99788.56;;;1.15;48.47
76205;BME280;64986;55.672;37.628;2022-11-15T09:04:28;99795.78;;;1.21;48.21
76205;BME280;64986;55.672;37.628;2022-11-15T09:06:54;99782.56;;;1.24;48.29
76205;BME280;64986;55.672;37.628;2022-11-15T09:09:19;99779.41;;;1.20;48.35
76205;BME280;64986;55.672;37.628;2022-11-15T09:11:45;99782.94;;;1.38;48.13
76205;BME280;64986;55.672;37.628;2022-11-15T09:14:11;99776.38;;;1.54;48.10
76205;BME280;64986;55.672;37.628;2022-11-15T09:16:37;99776.06;;;1.66;47.71
76205;BME280;64986;55.672;37.628;2022-11-15T09:19:03;99769.78;;;1.69;47.55
76205;BME280;64986;55.672;37.628;2022-11-15T09:21:29;99762.03;;;1.59;47.51
76205;BME280;64986;55.672;37.628;2022-11-15T09:23:55;99754.81;;;1.44;47.90
76205;BME280;64986;55.672;37.628;2022-11-15T09:26:20;99758.66;;;1.30;48.13
76205;BME280;64986;55.672;37.628;2022-11-15T09:28:46;99752.91;;;1.26;48.59
76205;BME280;64986;55.672;37.628;2022-11-15T09:31:11;99756.75;;;1.22;48.36
76205;BME280;64986;55.672;37.628;2022-11-15T09:33:37;99750.50;;;1.15;48.47
76205;BME280;64986;55.672;37.628;2022-11-15T09:36:04;99756.75;;;1.13;48.60
76205;BME280;64986;55.672;37.628;2022-11-15T09:38:31;99754.69;;;1.26;48.90
76205;BME280;64986;55.672;37.628;2022-11-15T09:49:56;99746.94;;;0.97;48.71
76205;BME280;64986;55.672;37.628;2022-11-15T09:52:24;99742.72;;;0.96;48.69
76205;BME280;64986;55.672;37.628;2022-11-15T09:54:51;99734.09;;;1.05;49.24
76205;BME280;64986;55.672;37.628;2022-11-15T09:57:32;99738.19;;;1.17;48.94
76205;BME280;64986;55.672;37.628;2022-11-15T10:00:24;99748.84;;;1.14;48.11
76205;BME280;64986;55.672;37.628;2022-11-15T10:03:09;99740.53;;;1.01;48.67
76205;BME280;64986;55.672;37.628;2022-11-15T10:05:57;99737.94;;;0.81;49.23
76205;BME280;64986;55.672;37.628;2022-11-15T10:11:29;99731.66;;;1.03;48.81
76205;BME280;64986;55.672;37.628;2022-11-15T10:14:14;99732.06;;;1.18;48.74
76205;BME280;64986;55.672;37.628;2022-11-15T10:19:53;99719.72;;;1.49;47.66
76205;BME280;64986;55.672;37.628;2022-11-15T10:22:31;99713.84;;;1.47;48.31
76205;BME280;64986;55.672;37.628;2022-11-15T10:27:29;99698.66;;;1.62;48.66
76205;BME280;64986;55.672;37.628;2022-11-15T10:29:55;99685.78;;;1.70;48.63
76205;BME280;64986;55.672;37.628;2022-11-15T10:32:21;99689.28;;;1.79;48.39
76205;BME280;64986;55.672;37.628;2022-11-15T10:34:48;99683.19;;;1.70;47.87
76205;BME280;64986;55.672;37.628;2022-11-15T10:37:14;99693.25;;;1.36;48.57
76205;BME280;64986;55.672;37.628;2022-11-15T10:39:40;99683.09;;;1.15;48.94
76205;BME280;64986;55.672;37.628;2022-11-15T10:42:28;99676.25;;;1.04;49.64
76205;BME280;64986;55.672;37.628;2022-11-15T10:44:54;99675.06;;;0.99;49.68
76205;BME280;64986;55.672;37.628;2022-11-15T10:47:26;99670.97;;;1.06;49.53
76205;BME280;64986;55.672;37.628;2022-11-15T10:52:26;99661.50;;;1.24;49.26
76205;BME280;64986;55.672;37.628;2022-11-15T10:55:41;99665.59;;;1.17;48.66
76205;BME280;64986;55.672;37.628;2022-11-15T10:57:49;99661.66;;;1.13;49.02
76205;BME280;64986;55.672;37.628;2022-11-15T11:08:22;99642.34;;;1.45;48.30
76205;BME280;64986;55.672;37.628;2022-11-15T11:10:55;99637.41;;;1.42;48.16
76205;BME280;64986;55.672;37.628;2022-11-15T11:13:38;99640.94;;;1.50;48.65
76205;BME280;64986;55.672;37.628;2022-11-15T11:21:22;99632.25;;;1.69;48.84
76205;BME280;64986;55.672;37.628;2022-11-15T11:23:54;99630.63;;;1.68;48.85
76205;BME280;64986;55.672;37.628;2022-11-15T11:31:48;99622.97;;;1.39;49.19
76205;BME280;64986;55.672;37.628;2022-11-15T11:43:00;99608.88;;;1.42;48.43
76205;BME280;64986;55.672;37.628;2022-11-15T11:51:01;99614.47;;;1.47;48.97
76205;BME280;64986;55.672;37.628;2022-11-15T11:53:36;99610.34;;;1.17;49.95
76205;BME280;64986;55.672;37.628;2022-11-15T11:56:17;99610.97;;;0.81;49.85
76205;BME280;64986;55.672;37.628;2022-11-15T11:58:46;99616.88;;;0.64;51.56
76205;BME280;64986;55.672;37.628;2022-11-15T12:01:31;99604.72;;;0.74;51.59
76205;BME280;64986;55.672;37.628;2022-11-15T12:09:26;99609.78;;;0.57;52.38
76205;BME280;64986;55.672;37.628;2022-11-15T12:16:58;99597.53;;;0.49;52.47
76205;BME280;64986;55.672;37.628;2022-11-15T12:19:24;99591.78;;;0.36;52.69
76205;BME280;64986;55.672;37.628;2022-11-15T12:22:52;99582.94;;;0.28;52.65
76205;BME280;64986;55.672;37.628;2022-11-15T12:25:15;99583.09;;;0.17;53.31
76205;BME280;64986;55.672;37.628;2022-11-15T12:27:51;99579.81;;;0.15;54.29
76205;BME280;64986;55.672;37.628;2022-11-15T12:30:20;99580.34;;;0.19;54.31
76205;BME280;64986;55.672;37.628;2022-11-15T12:32:58;99583.22;;;0.25;56.12
76205;BME280;64986;55.672;37.628;2022-11-15T12:35:37;99575.72;;;0.32;55.72
76205;BME280;64986;55.672;37.628;2022-11-15T12:38:04;99575.72;;;0.42;54.97
76205;BME280;64986;55.672;37.628;2022-11-15T12:40:35;99566.72;;;0.46;55.00
76205;BME280;64986;55.672;37.628;2022-11-15T20:14:30;99226.50;;;-1.79;71.42
76205;BME280;64986;55.672;37.628;2022-11-15T20:16:56;99218.38;;;-1.65;70.22
76205;BME280;64986;55.672;37.628;2022-11-15T20:19:22;99214.31;;;-1.48;71.17
76205;BME280;64986;55.672;37.628;2022-11-15T20:21:47;99212.16;;;-1.33;71.79
76205;BME280;64986;55.672;37.628;2022-11-15T20:24:13;99214.47;;;-1.21;70.92
76205;BME280;64986;55.672;37.628;2022-11-15T20:26:39;99217.72;;;-1.09;70.12
76205;BME280;64986;55.672;37.628;2022-11-15T20:29:06;99218.66;;;-1.00;69.40
76205;BME280;64986;55.672;37.628;2022-11-15T20:31:32;99212.53;;;-0.99;70.26
76205;BME280;64986;55.672;37.628;2022-11-15T20:33:58;99213.75;;;-0.94;70.09
76205;BME280;64986;55.672;37.628;2022-11-15T20:36:24;99209.69;;;-0.87;70.22
76205;BME280;64986;55.672;37.628;2022-11-15T20:38:49;99212.13;;;-0.85;70.12
76205;BME280;64986;55.672;37.628;2022-11-15T20:41:15;99205.06;;;-0.83;69.72
76205;BME280;64986;55.672;37.628;2022-11-15T20:43:41;99208.47;;;-0.82;69.91
76205;BME280;64986;55.672;37.628;2022-11-15T20:46:09;99209.78;;;-0.78;70.05
76205;BME280;64986;55.672;37.628;2022-11-15T20:48:34;99209.94;;;-0.80;69.71
76205;BME280;64986;55.672;37.628;2022-11-15T20:51:17;99208.16;;;-0.79;70.05
76205;BME280;64986;55.672;37.628;2022-11-15T20:53:44;99211.72;;;-0.80;69.85
76205;BME280;64986;55.672;37.628;2022-11-15T20:56:12;99207.75;;;-0.85;69.34
76205;BME280;64986;55.672;37.628;2022-11-15T20:58:37;99210.75;;;-0.79;69.36
76205;BME280;64986;55.672;37.628;2022-11-15T21:01:04;99204.91;;;-0.81;69.42
76205;BME280;64986;55.672;37.628;2022-11-15T21:03:30;99200.41;;;-0.79;69.37
76205;BME280;64986;55.672;37.628;2022-11-15T21:05:56;99199.88;;;-0.73;69.83
76205;BME280;64986;55.672;37.628;2022-11-15T21:08:22;99194.25;;;-0.69;69.10
76205;BME280;64986;55.672;37.628;2022-11-15T21:10:50;99206.78;;;-0.64;69.34
76205;BME280;64986;55.672;37.628;2022-11-15T21:13:35;99201.47;;;-0.63;69.34
76205;BME280;64986;55.672;37.628;2022-11-15T21:16:01;99195.22;;;-0.60;69.38
76205;BME280;64986;55.672;37.628;2022-11-15T21:18:30;99196.69;;;-0.58;69.07
76205;BME280;64986;55.672;37.628;2022-11-15T21:21:05;99196.13;;;-0.51;69.14
76205;BME280;64986;55.672;37.628;2022-11-15T21:23:31;99197.63;;;-0.49;69.01
76205;BME280;64986;55.672;37.628;2022-11-15T21:25:57;99198.97;;;-0.45;68.73
76205;BME280;64986;55.672;37.628;2022-11-15T21:28:23;99199.50;;;-0.41;68.65
76205;BME280;64986;55.672;37.628;2022-11-15T21:30:53;99204.09;;;-0.35;68.64
76205;BME280;64986;55.672;37.628;2022-11-15T21:33:19;99196.19;;;-0.34;68.62
76205;BME280;64986;55.672;37.628;2022-11-15T21:35:45;99191.41;;;-0.29;68.73
76205;BME280;64986;55.672;37.628;2022-11-15T21:38:11;99197.25;;;-0.26;68.85
76205;BME280;64986;55.672;37.628;2022-11-15T21:40:37;99199.69;;;-0.25;68.61
76205;BME280;64986;55.672;37.628;2022-11-15T21:43:03;99196.03;;;-0.22;68.66
76205;BME280;64986;55.672;37.628;2022-11-15T21:45:29;99197.66;;;-0.21;69.37
76205;BME280;64986;55.672;37.628;2022-11-15T21:47:54;99200.75;;;-0.18;68.87
76205;BME280;64986;55.672;37.628;2022-11-15T21:50:19;99197.22;;;-0.17;68.54
76205;BME280;64986;55.672;37.628;2022-11-15T21:52:45;99195.31;;;-0.15;68.81
76205;BME280;64986;55.672;37.628;2022-11-15T21:55:11;99195.72;;;-0.19;68.78
76205;BME280;64986;55.672;37.628;2022-11-15T21:57:36;99198.84;;;-0.16;68.78
76205;BME280;64986;55.672;37.628;2022-11-15T22:00:03;99197.75;;;-0.13;68.48
76205;BME280;64986;55.672;37.628;2022-11-15T22:02:47;99200.19;;;-0.12;68.65
76205;BME280;64986;55.672;37.628;2022-11-15T22:05:12;99193.38;;;-0.13;68.58